This is the latest recevied weather packets stored in our database for station/object DL1ONI-13. If no packets are shown the sender has not sent any weather packets the latest 10 day(s).
| Time | Temp. | Humidity | Pressure | Rain* | Wind** | Luminosity | Snow |
|---|---|---|---|---|---|---|---|
| 1778097626 | 13.33° C | 72% | 1012.8 hPa | 0 mm | - | - | - |
| 1778095819 | 13.33° C | 73% | 1012.5 hPa | 0 mm | - | - | - |
| 1778094619 | 13.33° C | 69% | 1011.9 hPa | 0 mm | - | - | - |
| 1778094019 | 13.33° C | 68% | 1011.9 hPa | 0 mm | - | - | - |
| 1778092220 | 13.89° C | 64% | 1011.1 hPa | 0 mm | - | - | - |
| 1778089822 | 15.56° C | 56% | 1010.5 hPa | 0 mm | - | - | - |
| 1778089221 | 17.22° C | 48% | 1010.6 hPa | 0 mm | - | - | - |
| 1778083843 | 21.11° C | 46% | 1009.1 hPa | 0 mm | - | - | - |
| 1778081423 | 21.11° C | 46% | 1009 hPa | 0 mm | - | - | - |
| 1778080822 | 21.11° C | 46% | 1009 hPa | 0 mm | - | - | - |
| 1778079621 | 21.67° C | 42% | 1009.3 hPa | 0 mm | - | - | - |
| 1778076022 | 23.33° C | 40% | 1010.3 hPa | 0 mm | - | - | - |
| 1778074822 | 23.89° C | 40% | 1010.8 hPa | 0 mm | - | - | - |
| 1778073623 | 23.33° C | 41% | 1011 hPa | 0 mm | - | - | - |
| 1778073024 | 21.67° C | 40% | 1011 hPa | 0 mm | - | - | - |
| 1778064020 | 21.11° C | 47% | 1012 hPa | 0 mm | - | - | - |
| 1778062842 | 20.56° C | 47% | 1012.9 hPa | 0 mm | - | - | - |
| 1778059824 | 20° C | 49% | 1012.8 hPa | 0 mm | - | - | - |
| 1778058025 | 19.44° C | 51% | 1012.8 hPa | 0 mm | - | - | - |
| 1778055025 | 18.33° C | 58% | 1012.7 hPa | 0 mm | - | - | - |
| 1778049017 | 14.44° C | 64% | 1012.5 hPa | 0 mm | - | - | - |
| 1778043018 | 11.67° C | 70% | 1011.6 hPa | 0 mm | - | - | - |
| 1778042418 | 11.67° C | 70% | 1011.6 hPa | 0 mm | - | - | - |
| 1778041258 | 10.56° C | 71% | 1011.5 hPa | 0 mm | - | - | - |
| 1778038819 | 10.56° C | 71% | 1011.8 hPa | 0 mm | - | - | - |
* Rain latest hour (hover to see other rain measurements)
** Current wind speed in m/s (hover to see current wind gust speed)